sensor_id;sensor_type;location;lat;lon;timestamp;P1;durP1;ratioP1;P2;durP2;ratioP2
10088;SDS011;51898;49.864;8.550;2023-07-02T00:02:14;2.53;;;2.33;;
10088;SDS011;51898;49.864;8.550;2023-07-02T00:05:18;2.50;;;2.20;;
10088;SDS011;51898;49.864;8.550;2023-07-02T00:08:21;2.77;;;2.50;;
10088;SDS011;51898;49.864;8.550;2023-07-02T00:11:24;5.90;;;2.93;;
10088;SDS011;51898;49.864;8.550;2023-07-02T00:14:26;3.93;;;2.80;;
10088;SDS011;51898;49.864;8.550;2023-07-02T00:17:28;3.70;;;2.60;;
10088;SDS011;51898;49.864;8.550;2023-07-02T00:20:30;5.40;;;2.60;;
10088;SDS011;51898;49.864;8.550;2023-07-02T00:23:43;3.10;;;2.17;;
10088;SDS011;51898;49.864;8.550;2023-07-02T00:26:45;2.70;;;2.50;;
10088;SDS011;51898;49.864;8.550;2023-07-02T00:29:47;3.77;;;2.33;;
10088;SDS011;51898;49.864;8.550;2023-07-02T00:32:49;5.03;;;2.60;;
10088;SDS011;51898;49.864;8.550;2023-07-02T00:36:01;3.30;;;2.17;;
10088;SDS011;51898;49.864;8.550;2023-07-02T00:39:03;4.17;;;2.40;;
10088;SDS011;51898;49.864;8.550;2023-07-02T00:42:06;3.20;;;2.40;;
10088;SDS011;51898;49.864;8.550;2023-07-02T00:45:09;3.03;;;2.53;;
10088;SDS011;51898;49.864;8.550;2023-07-02T00:48:11;5.40;;;2.43;;
10088;SDS011;51898;49.864;8.550;2023-07-02T00:51:14;6.60;;;2.93;;
10088;SDS011;51898;49.864;8.550;2023-07-02T00:54:17;3.23;;;2.23;;
10088;SDS011;51898;49.864;8.550;2023-07-02T00:57:19;4.77;;;2.70;;
10088;SDS011;51898;49.864;8.550;2023-07-02T01:06:55;3.23;;;2.27;;
10088;SDS011;51898;49.864;8.550;2023-07-02T01:09:59;3.23;;;2.93;;
10088;SDS011;51898;49.864;8.550;2023-07-02T01:13:12;2.67;;;2.40;;
10088;SDS011;51898;49.864;8.550;2023-07-02T01:16:17;3.80;;;2.50;;
10088;SDS011;51898;49.864;8.550;2023-07-02T01:22:53;3.50;;;2.83;;
10088;SDS011;51898;49.864;8.550;2023-07-02T01:25:55;3.17;;;2.50;;
10088;SDS011;51898;49.864;8.550;2023-07-02T01:32:20;4.10;;;2.63;;
10088;SDS011;51898;49.864;8.550;2023-07-02T01:35:23;3.53;;;2.70;;
10088;SDS011;51898;49.864;8.550;2023-07-02T01:38:25;3.23;;;2.60;;
10088;SDS011;51898;49.864;8.550;2023-07-02T01:41:31;4.13;;;2.30;;
10088;SDS011;51898;49.864;8.550;2023-07-02T01:44:39;5.83;;;2.90;;
10088;SDS011;51898;49.864;8.550;2023-07-02T01:47:41;3.57;;;2.30;;
10088;SDS011;51898;49.864;8.550;2023-07-02T01:50:42;5.47;;;2.30;;
10088;SDS011;51898;49.864;8.550;2023-07-02T01:53:44;3.83;;;2.80;;
10088;SDS011;51898;49.864;8.550;2023-07-02T01:56:46;5.47;;;2.70;;
10088;SDS011;51898;49.864;8.550;2023-07-02T01:59:48;3.57;;;3.17;;
10088;SDS011;51898;49.864;8.550;2023-07-02T02:02:49;4.10;;;2.43;;
10088;SDS011;51898;49.864;8.550;2023-07-02T02:05:52;8.43;;;3.23;;
10088;SDS011;51898;49.864;8.550;2023-07-02T02:08:53;4.40;;;2.90;;
10088;SDS011;51898;49.864;8.550;2023-07-02T02:11:55;4.70;;;2.80;;
10088;SDS011;51898;49.864;8.550;2023-07-02T02:14:57;3.50;;;2.90;;
10088;SDS011;51898;49.864;8.550;2023-07-02T02:18:00;3.40;;;2.37;;
10088;SDS011;51898;49.864;8.550;2023-07-02T02:21:02;5.77;;;3.00;;
10088;SDS011;51898;49.864;8.550;2023-07-02T02:24:05;7.20;;;3.40;;
10088;SDS011;51898;49.864;8.550;2023-07-02T02:27:08;5.23;;;3.60;;
10088;SDS011;51898;49.864;8.550;2023-07-02T02:30:10;5.90;;;4.00;;
10088;SDS011;51898;49.864;8.550;2023-07-02T02:33:12;8.70;;;4.30;;
10088;SDS011;51898;49.864;8.550;2023-07-02T02:36:13;9.13;;;5.20;;
10088;SDS011;51898;49.864;8.550;2023-07-02T02:39:15;6.43;;;4.90;;
10088;SDS011;51898;49.864;8.550;2023-07-02T02:42:17;7.30;;;5.00;;
10088;SDS011;51898;49.864;8.550;2023-07-02T02:45:19;9.93;;;4.60;;
10088;SDS011;51898;49.864;8.550;2023-07-02T02:48:21;7.10;;;4.30;;
10088;SDS011;51898;49.864;8.550;2023-07-02T02:51:24;7.47;;;4.60;;
10088;SDS011;51898;49.864;8.550;2023-07-02T02:54:26;10.60;;;4.33;;
10088;SDS011;51898;49.864;8.550;2023-07-02T02:57:27;6.30;;;4.10;;
10088;SDS011;51898;49.864;8.550;2023-07-02T03:00:29;7.07;;;3.77;;
10088;SDS011;51898;49.864;8.550;2023-07-02T03:03:31;7.83;;;4.40;;
10088;SDS011;51898;49.864;8.550;2023-07-02T03:06:35;5.30;;;4.17;;
10088;SDS011;51898;49.864;8.550;2023-07-02T03:09:37;8.80;;;4.30;;
10088;SDS011;51898;49.864;8.550;2023-07-02T03:12:38;6.30;;;3.83;;
10088;SDS011;51898;49.864;8.550;2023-07-02T03:15:40;5.27;;;4.60;;
10088;SDS011;51898;49.864;8.550;2023-07-02T03:18:42;6.90;;;4.67;;
10088;SDS011;51898;49.864;8.550;2023-07-02T03:21:44;7.23;;;4.47;;
10088;SDS011;51898;49.864;8.550;2023-07-02T03:24:46;6.33;;;4.43;;
10088;SDS011;51898;49.864;8.550;2023-07-02T03:27:50;5.83;;;4.30;;
10088;SDS011;51898;49.864;8.550;2023-07-02T03:30:52;7.77;;;5.00;;
10088;SDS011;51898;49.864;8.550;2023-07-02T03:33:54;7.27;;;4.10;;
10088;SDS011;51898;49.864;8.550;2023-07-02T03:36:55;7.83;;;4.10;;
10088;SDS011;51898;49.864;8.550;2023-07-02T03:39:57;8.83;;;5.17;;
10088;SDS011;51898;49.864;8.550;2023-07-02T03:42:59;8.30;;;4.97;;
10088;SDS011;51898;49.864;8.550;2023-07-02T03:46:01;7.10;;;4.40;;
10088;SDS011;51898;49.864;8.550;2023-07-02T03:49:03;8.17;;;4.40;;
10088;SDS011;51898;49.864;8.550;2023-07-02T03:52:05;7.90;;;4.60;;
10088;SDS011;51898;49.864;8.550;2023-07-02T03:55:07;6.77;;;4.63;;
10088;SDS011;51898;49.864;8.550;2023-07-02T03:58:09;7.70;;;4.87;;
10088;SDS011;51898;49.864;8.550;2023-07-02T04:01:11;8.73;;;5.40;;
10088;SDS011;51898;49.864;8.550;2023-07-02T04:04:17;9.10;;;4.83;;
10088;SDS011;51898;49.864;8.550;2023-07-02T04:07:18;7.23;;;5.30;;
10088;SDS011;51898;49.864;8.550;2023-07-02T04:10:20;11.47;;;5.30;;
10088;SDS011;51898;49.864;8.550;2023-07-02T04:13:22;6.97;;;4.90;;
10088;SDS011;51898;49.864;8.550;2023-07-02T04:16:23;7.77;;;5.03;;
10088;SDS011;51898;49.864;8.550;2023-07-02T04:19:25;9.53;;;4.90;;
10088;SDS011;51898;49.864;8.550;2023-07-02T04:22:27;7.20;;;4.87;;
10088;SDS011;51898;49.864;8.550;2023-07-02T04:25:29;9.53;;;4.63;;
10088;SDS011;51898;49.864;8.550;2023-07-02T04:28:51;9.97;;;4.90;;
10088;SDS011;51898;49.864;8.550;2023-07-02T04:31:52;8.80;;;5.60;;
10088;SDS011;51898;49.864;8.550;2023-07-02T04:34:54;8.67;;;5.37;;
10088;SDS011;51898;49.864;8.550;2023-07-02T04:37:57;8.37;;;5.30;;
10088;SDS011;51898;49.864;8.550;2023-07-02T04:41:01;10.53;;;5.73;;
10088;SDS011;51898;49.864;8.550;2023-07-02T04:44:06;8.17;;;4.93;;
10088;SDS011;51898;49.864;8.550;2023-07-02T04:47:09;7.77;;;5.67;;
10088;SDS011;51898;49.864;8.550;2023-07-02T04:50:10;11.17;;;5.93;;
10088;SDS011;51898;49.864;8.550;2023-07-02T04:53:12;9.47;;;5.80;;
10088;SDS011;51898;49.864;8.550;2023-07-02T04:56:17;9.63;;;5.53;;
10088;SDS011;51898;49.864;8.550;2023-07-02T04:59:20;14.70;;;5.93;;
10088;SDS011;51898;49.864;8.550;2023-07-02T05:02:22;10.20;;;6.00;;
10088;SDS011;51898;49.864;8.550;2023-07-02T05:05:24;10.73;;;6.50;;
10088;SDS011;51898;49.864;8.550;2023-07-02T05:08:26;7.20;;;6.13;;
10088;SDS011;51898;49.864;8.550;2023-07-02T05:11:28;12.43;;;6.40;;
10088;SDS011;51898;49.864;8.550;2023-07-02T05:14:29;12.57;;;6.50;;
10088;SDS011;51898;49.864;8.550;2023-07-02T05:17:31;10.37;;;5.90;;
10088;SDS011;51898;49.864;8.550;2023-07-02T05:20:36;9.57;;;6.27;;
10088;SDS011;51898;49.864;8.550;2023-07-02T05:23:38;10.73;;;6.77;;
10088;SDS011;51898;49.864;8.550;2023-07-02T05:26:39;12.70;;;6.97;;
10088;SDS011;51898;49.864;8.550;2023-07-02T05:29:41;11.63;;;6.53;;
10088;SDS011;51898;49.864;8.550;2023-07-02T05:32:44;11.70;;;6.47;;
10088;SDS011;51898;49.864;8.550;2023-07-02T05:35:45;12.20;;;6.80;;
10088;SDS011;51898;49.864;8.550;2023-07-02T05:38:47;13.87;;;7.73;;
10088;SDS011;51898;49.864;8.550;2023-07-02T05:41:49;12.97;;;7.07;;
10088;SDS011;51898;49.864;8.550;2023-07-02T05:44:50;12.40;;;7.07;;
10088;SDS011;51898;49.864;8.550;2023-07-02T05:47:52;11.07;;;6.63;;
10088;SDS011;51898;49.864;8.550;2023-07-02T05:50:54;11.80;;;6.93;;
10088;SDS011;51898;49.864;8.550;2023-07-02T05:53:56;11.97;;;6.93;;
10088;SDS011;51898;49.864;8.550;2023-07-02T05:56:58;10.00;;;6.67;;
10088;SDS011;51898;49.864;8.550;2023-07-02T05:59:59;10.70;;;8.20;;
10088;SDS011;51898;49.864;8.550;2023-07-02T06:03:01;12.40;;;7.50;;
10088;SDS011;51898;49.864;8.550;2023-07-02T06:06:04;11.53;;;7.10;;
10088;SDS011;51898;49.864;8.550;2023-07-02T06:09:06;11.87;;;7.30;;
10088;SDS011;51898;49.864;8.550;2023-07-02T06:12:07;11.10;;;7.27;;
10088;SDS011;51898;49.864;8.550;2023-07-02T06:15:09;11.93;;;7.97;;
10088;SDS011;51898;49.864;8.550;2023-07-02T06:18:11;12.00;;;8.43;;
10088;SDS011;51898;49.864;8.550;2023-07-02T06:21:14;10.00;;;7.87;;
10088;SDS011;51898;49.864;8.550;2023-07-02T06:24:15;11.67;;;8.03;;
10088;SDS011;51898;49.864;8.550;2023-07-02T06:27:17;11.70;;;8.90;;
10088;SDS011;51898;49.864;8.550;2023-07-02T06:30:19;15.50;;;8.07;;
10088;SDS011;51898;49.864;8.550;2023-07-02T06:33:23;10.53;;;8.03;;
10088;SDS011;51898;49.864;8.550;2023-07-02T06:36:25;17.57;;;8.00;;
10088;SDS011;51898;49.864;8.550;2023-07-02T06:39:26;18.83;;;10.13;;
10088;SDS011;51898;49.864;8.550;2023-07-02T06:42:28;12.70;;;8.10;;
10088;SDS011;51898;49.864;8.550;2023-07-02T06:45:30;12.90;;;8.40;;
10088;SDS011;51898;49.864;8.550;2023-07-02T06:48:31;12.30;;;8.70;;
10088;SDS011;51898;49.864;8.550;2023-07-02T06:51:34;14.90;;;9.27;;
10088;SDS011;51898;49.864;8.550;2023-07-02T06:54:35;13.20;;;9.10;;
10088;SDS011;51898;49.864;8.550;2023-07-02T06:57:44;14.80;;;9.30;;
10088;SDS011;51898;49.864;8.550;2023-07-02T07:00:49;15.13;;;10.53;;
10088;SDS011;51898;49.864;8.550;2023-07-02T07:03:51;12.67;;;9.17;;
10088;SDS011;51898;49.864;8.550;2023-07-02T07:06:53;15.37;;;9.93;;
10088;SDS011;51898;49.864;8.550;2023-07-02T07:09:56;14.77;;;8.90;;
10088;SDS011;51898;49.864;8.550;2023-07-02T07:12:58;17.70;;;10.13;;
10088;SDS011;51898;49.864;8.550;2023-07-02T07:15:59;15.90;;;10.50;;
10088;SDS011;51898;49.864;8.550;2023-07-02T07:19:01;15.80;;;10.17;;
10088;SDS011;51898;49.864;8.550;2023-07-02T07:22:03;17.43;;;10.10;;
10088;SDS011;51898;49.864;8.550;2023-07-02T07:25:05;15.77;;;10.30;;
10088;SDS011;51898;49.864;8.550;2023-07-02T07:28:07;14.53;;;10.50;;
10088;SDS011;51898;49.864;8.550;2023-07-02T07:31:13;16.30;;;10.40;;
10088;SDS011;51898;49.864;8.550;2023-07-02T07:34:14;17.60;;;11.00;;
10088;SDS011;51898;49.864;8.550;2023-07-02T07:37:16;19.80;;;12.43;;
10088;SDS011;51898;49.864;8.550;2023-07-02T07:40:18;17.40;;;10.63;;
10088;SDS011;51898;49.864;8.550;2023-07-02T07:43:22;20.10;;;11.47;;
10088;SDS011;51898;49.864;8.550;2023-07-02T07:46:23;15.30;;;10.07;;
10088;SDS011;51898;49.864;8.550;2023-07-02T07:49:25;16.10;;;11.33;;
10088;SDS011;51898;49.864;8.550;2023-07-02T07:52:27;15.03;;;10.60;;
10088;SDS011;51898;49.864;8.550;2023-07-02T07:55:29;16.17;;;11.93;;
10088;SDS011;51898;49.864;8.550;2023-07-02T07:58:31;17.60;;;10.73;;
10088;SDS011;51898;49.864;8.550;2023-07-02T08:01:35;17.10;;;12.00;;
10088;SDS011;51898;49.864;8.550;2023-07-02T08:04:37;17.50;;;11.33;;
10088;SDS011;51898;49.864;8.550;2023-07-02T08:07:39;14.13;;;10.10;;
10088;SDS011;51898;49.864;8.550;2023-07-02T08:10:44;18.63;;;11.97;;
10088;SDS011;51898;49.864;8.550;2023-07-02T08:13:46;14.07;;;11.17;;
10088;SDS011;51898;49.864;8.550;2023-07-02T08:16:48;15.00;;;11.07;;
10088;SDS011;51898;49.864;8.550;2023-07-02T08:19:50;20.33;;;11.50;;
10088;SDS011;51898;49.864;8.550;2023-07-02T08:22:52;15.57;;;11.13;;
10088;SDS011;51898;49.864;8.550;2023-07-02T08:25:53;14.40;;;10.97;;
10088;SDS011;51898;49.864;8.550;2023-07-02T08:28:55;14.70;;;10.73;;
10088;SDS011;51898;49.864;8.550;2023-07-02T08:31:57;12.97;;;9.60;;
10088;SDS011;51898;49.864;8.550;2023-07-02T08:34:59;13.53;;;9.87;;
10088;SDS011;51898;49.864;8.550;2023-07-02T08:38:01;15.83;;;10.50;;
10088;SDS011;51898;49.864;8.550;2023-07-02T08:41:03;14.10;;;9.80;;
10088;SDS011;51898;49.864;8.550;2023-07-02T08:44:05;14.13;;;11.00;;
10088;SDS011;51898;49.864;8.550;2023-07-02T08:47:07;16.67;;;9.87;;
10088;SDS011;51898;49.864;8.550;2023-07-02T08:50:09;12.30;;;10.10;;
10088;SDS011;51898;49.864;8.550;2023-07-02T08:53:11;13.67;;;10.57;;
10088;SDS011;51898;49.864;8.550;2023-07-02T08:56:13;17.17;;;10.57;;
10088;SDS011;51898;49.864;8.550;2023-07-02T08:59:15;14.77;;;10.30;;
10088;SDS011;51898;49.864;8.550;2023-07-02T09:02:16;12.63;;;9.73;;
10088;SDS011;51898;49.864;8.550;2023-07-02T09:05:18;11.43;;;9.73;;
10088;SDS011;51898;49.864;8.550;2023-07-02T09:08:24;13.23;;;9.67;;
10088;SDS011;51898;49.864;8.550;2023-07-02T09:11:26;13.17;;;9.50;;
10088;SDS011;51898;49.864;8.550;2023-07-02T09:14:29;12.10;;;9.63;;
10088;SDS011;51898;49.864;8.550;2023-07-02T09:17:35;10.43;;;8.80;;
10088;SDS011;51898;49.864;8.550;2023-07-02T09:20:40;15.53;;;10.03;;
10088;SDS011;51898;49.864;8.550;2023-07-02T09:23:42;18.50;;;10.63;;
10088;SDS011;51898;49.864;8.550;2023-07-02T09:26:44;14.10;;;10.40;;
10088;SDS011;51898;49.864;8.550;2023-07-02T09:29:52;13.90;;;10.77;;
10088;SDS011;51898;49.864;8.550;2023-07-02T09:32:54;16.37;;;10.57;;
10088;SDS011;51898;49.864;8.550;2023-07-02T09:36:07;15.50;;;11.27;;
10088;SDS011;51898;49.864;8.550;2023-07-02T09:39:17;16.90;;;11.90;;
10088;SDS011;51898;49.864;8.550;2023-07-02T09:42:21;14.00;;;10.40;;
10088;SDS011;51898;49.864;8.550;2023-07-02T09:45:26;16.27;;;11.53;;
10088;SDS011;51898;49.864;8.550;2023-07-02T09:48:29;13.80;;;11.17;;
10088;SDS011;51898;49.864;8.550;2023-07-02T09:51:36;14.00;;;11.40;;
10088;SDS011;51898;49.864;8.550;2023-07-02T09:54:38;14.60;;;10.97;;
10088;SDS011;51898;49.864;8.550;2023-07-02T09:57:40;12.50;;;10.77;;
10088;SDS011;51898;49.864;8.550;2023-07-02T10:00:45;16.53;;;11.10;;
10088;SDS011;51898;49.864;8.550;2023-07-02T10:03:47;16.10;;;12.10;;
10088;SDS011;51898;49.864;8.550;2023-07-02T10:06:53;16.53;;;12.27;;
10088;SDS011;51898;49.864;8.550;2023-07-02T10:09:56;18.40;;;12.70;;
10088;SDS011;51898;49.864;8.550;2023-07-02T10:12:59;14.20;;;11.87;;
10088;SDS011;51898;49.864;8.550;2023-07-02T10:16:04;15.40;;;11.70;;
10088;SDS011;51898;49.864;8.550;2023-07-02T10:19:12;14.50;;;11.17;;
10088;SDS011;51898;49.864;8.550;2023-07-02T10:22:14;16.10;;;12.03;;
10088;SDS011;51898;49.864;8.550;2023-07-02T10:25:25;19.50;;;12.90;;
10088;SDS011;51898;49.864;8.550;2023-07-02T10:28:28;26.03;;;12.53;;
10088;SDS011;51898;49.864;8.550;2023-07-02T10:31:30;19.97;;;12.97;;
10088;SDS011;51898;49.864;8.550;2023-07-02T10:34:33;21.63;;;13.37;;
10088;SDS011;51898;49.864;8.550;2023-07-02T10:37:36;15.00;;;11.43;;
10088;SDS011;51898;49.864;8.550;2023-07-02T10:40:39;17.90;;;12.90;;
10088;SDS011;51898;49.864;8.550;2023-07-02T10:43:40;16.40;;;12.40;;
10088;SDS011;51898;49.864;8.550;2023-07-02T10:46:45;20.70;;;13.70;;
10088;SDS011;51898;49.864;8.550;2023-07-02T10:49:48;21.33;;;13.20;;
10088;SDS011;51898;49.864;8.550;2023-07-02T10:52:50;17.50;;;12.70;;
10088;SDS011;51898;49.864;8.550;2023-07-02T10:55:55;16.63;;;12.50;;
10088;SDS011;51898;49.864;8.550;2023-07-02T10:58:59;20.57;;;13.57;;
10088;SDS011;51898;49.864;8.550;2023-07-02T11:02:01;18.30;;;13.93;;
10088;SDS011;51898;49.864;8.550;2023-07-02T11:05:05;24.23;;;13.30;;
10088;SDS011;51898;49.864;8.550;2023-07-02T11:08:08;16.90;;;12.80;;
10088;SDS011;51898;49.864;8.550;2023-07-02T11:11:10;18.07;;;12.70;;
10088;SDS011;51898;49.864;8.550;2023-07-02T11:14:12;18.93;;;12.90;;
10088;SDS011;51898;49.864;8.550;2023-07-02T11:17:14;22.33;;;13.00;;
10088;SDS011;51898;49.864;8.550;2023-07-02T11:20:16;24.80;;;13.53;;
10088;SDS011;51898;49.864;8.550;2023-07-02T11:26:20;18.80;;;13.17;;
10088;SDS011;51898;49.864;8.550;2023-07-02T11:29:23;19.70;;;13.20;;
10088;SDS011;51898;49.864;8.550;2023-07-02T11:32:25;19.13;;;14.10;;
10088;SDS011;51898;49.864;8.550;2023-07-02T11:35:36;16.57;;;13.80;;
10088;SDS011;51898;49.864;8.550;2023-07-02T11:38:37;23.80;;;14.20;;
10088;SDS011;51898;49.864;8.550;2023-07-02T11:41:39;20.40;;;14.10;;
10088;SDS011;51898;49.864;8.550;2023-07-02T11:44:42;30.23;;;14.17;;
10088;SDS011;51898;49.864;8.550;2023-07-02T11:47:43;23.13;;;14.80;;
10088;SDS011;51898;49.864;8.550;2023-07-02T11:50:45;21.47;;;14.20;;
10088;SDS011;51898;49.864;8.550;2023-07-02T11:53:47;18.33;;;13.13;;
10088;SDS011;51898;49.864;8.550;2023-07-02T11:56:49;24.07;;;15.00;;
10088;SDS011;51898;49.864;8.550;2023-07-02T11:59:51;19.97;;;13.03;;
10088;SDS011;51898;49.864;8.550;2023-07-02T12:02:53;17.90;;;14.47;;
10088;SDS011;51898;49.864;8.550;2023-07-02T12:05:55;21.33;;;14.30;;
10088;SDS011;51898;49.864;8.550;2023-07-02T12:08:57;19.83;;;14.20;;
10088;SDS011;51898;49.864;8.550;2023-07-02T12:11:59;18.37;;;14.20;;
10088;SDS011;51898;49.864;8.550;2023-07-02T12:15:01;20.07;;;14.00;;
10088;SDS011;51898;49.864;8.550;2023-07-02T12:18:03;23.03;;;14.50;;
10088;SDS011;51898;49.864;8.550;2023-07-02T12:21:05;19.13;;;13.97;;
10088;SDS011;51898;49.864;8.550;2023-07-02T12:24:07;20.00;;;15.27;;
10088;SDS011;51898;49.864;8.550;2023-07-02T12:27:10;21.77;;;15.20;;
10088;SDS011;51898;49.864;8.550;2023-07-02T12:30:12;18.83;;;14.70;;
10088;SDS011;51898;49.864;8.550;2023-07-02T12:33:18;18.57;;;14.43;;
10088;SDS011;51898;49.864;8.550;2023-07-02T12:36:20;21.37;;;15.43;;
10088;SDS011;51898;49.864;8.550;2023-07-02T12:39:22;18.00;;;15.30;;
10088;SDS011;51898;49.864;8.550;2023-07-02T12:42:24;19.77;;;15.33;;
10088;SDS011;51898;49.864;8.550;2023-07-02T12:45:26;20.90;;;15.63;;
10088;SDS011;51898;49.864;8.550;2023-07-02T12:48:27;22.07;;;15.43;;
10088;SDS011;51898;49.864;8.550;2023-07-02T12:51:29;24.23;;;15.43;;
10088;SDS011;51898;49.864;8.550;2023-07-02T12:54:31;20.37;;;15.10;;
10088;SDS011;51898;49.864;8.550;2023-07-02T12:57:33;26.00;;;15.17;;
10088;SDS011;51898;49.864;8.550;2023-07-02T13:00:35;22.30;;;15.60;;
10088;SDS011;51898;49.864;8.550;2023-07-02T13:03:38;22.17;;;16.47;;
10088;SDS011;51898;49.864;8.550;2023-07-02T13:06:46;20.57;;;15.03;;
10088;SDS011;51898;49.864;8.550;2023-07-02T13:09:48;19.50;;;14.67;;
10088;SDS011;51898;49.864;8.550;2023-07-02T13:12:49;23.23;;;13.87;;
10088;SDS011;51898;49.864;8.550;2023-07-02T13:15:51;18.23;;;14.47;;
10088;SDS011;51898;49.864;8.550;2023-07-02T13:18:53;16.30;;;14.43;;
10088;SDS011;51898;49.864;8.550;2023-07-02T13:21:57;22.20;;;14.90;;
10088;SDS011;51898;49.864;8.550;2023-07-02T13:24:59;21.80;;;15.37;;
10088;SDS011;51898;49.864;8.550;2023-07-02T13:28:01;18.20;;;14.20;;
10088;SDS011;51898;49.864;8.550;2023-07-02T13:31:03;17.57;;;14.20;;
10088;SDS011;51898;49.864;8.550;2023-07-02T13:34:05;19.17;;;14.13;;
10088;SDS011;51898;49.864;8.550;2023-07-02T13:37:08;21.60;;;14.03;;
10088;SDS011;51898;49.864;8.550;2023-07-02T13:40:10;22.77;;;14.63;;
10088;SDS011;51898;49.864;8.550;2023-07-02T13:43:13;19.80;;;14.57;;
10088;SDS011;51898;49.864;8.550;2023-07-02T13:46:15;17.47;;;13.87;;
10088;SDS011;51898;49.864;8.550;2023-07-02T13:49:17;17.77;;;13.47;;
10088;SDS011;51898;49.864;8.550;2023-07-02T13:52:19;19.60;;;14.53;;
10088;SDS011;51898;49.864;8.550;2023-07-02T13:55:20;17.53;;;14.20;;
10088;SDS011;51898;49.864;8.550;2023-07-02T14:01:47;17.97;;;14.03;;
10088;SDS011;51898;49.864;8.550;2023-07-02T14:04:50;18.57;;;14.20;;
10088;SDS011;51898;49.864;8.550;2023-07-02T14:07:52;17.47;;;13.73;;
10088;SDS011;51898;49.864;8.550;2023-07-02T14:10:54;20.10;;;14.07;;
10088;SDS011;51898;49.864;8.550;2023-07-02T14:13:56;19.90;;;13.67;;
10088;SDS011;51898;49.864;8.550;2023-07-02T14:16:58;20.23;;;14.20;;
10088;SDS011;51898;49.864;8.550;2023-07-02T14:19:59;20.73;;;14.20;;
10088;SDS011;51898;49.864;8.550;2023-07-02T14:23:01;22.70;;;14.60;;
10088;SDS011;51898;49.864;8.550;2023-07-02T14:26:03;16.60;;;13.90;;
10088;SDS011;51898;49.864;8.550;2023-07-02T14:29:04;22.13;;;15.37;;
10088;SDS011;51898;49.864;8.550;2023-07-02T14:32:06;24.47;;;15.30;;
10088;SDS011;51898;49.864;8.550;2023-07-02T14:35:09;20.80;;;14.80;;
10088;SDS011;51898;49.864;8.550;2023-07-02T14:38:10;17.90;;;14.50;;
10088;SDS011;51898;49.864;8.550;2023-07-02T14:41:12;19.20;;;14.77;;
10088;SDS011;51898;49.864;8.550;2023-07-02T14:44:14;19.40;;;14.67;;
10088;SDS011;51898;49.864;8.550;2023-07-02T14:47:16;21.30;;;14.40;;
10088;SDS011;51898;49.864;8.550;2023-07-02T14:50:17;21.50;;;15.20;;
10088;SDS011;51898;49.864;8.550;2023-07-02T14:53:20;19.60;;;14.50;;
10088;SDS011;51898;49.864;8.550;2023-07-02T14:56:22;18.80;;;13.43;;
10088;SDS011;51898;49.864;8.550;2023-07-02T14:59:24;21.47;;;14.13;;
10088;SDS011;51898;49.864;8.550;2023-07-02T15:02:25;15.07;;;12.73;;
10088;SDS011;51898;49.864;8.550;2023-07-02T15:05:27;18.30;;;13.40;;
10088;SDS011;51898;49.864;8.550;2023-07-02T15:08:29;18.17;;;13.47;;
10088;SDS011;51898;49.864;8.550;2023-07-02T15:11:31;20.20;;;13.83;;
10088;SDS011;51898;49.864;8.550;2023-07-02T15:14:33;16.00;;;12.77;;
10088;SDS011;51898;49.864;8.550;2023-07-02T15:17:35;19.87;;;14.53;;
10088;SDS011;51898;49.864;8.550;2023-07-02T15:20:37;21.33;;;15.20;;
10088;SDS011;51898;49.864;8.550;2023-07-02T15:23:39;21.63;;;14.10;;
10088;SDS011;51898;49.864;8.550;2023-07-02T15:26:41;17.83;;;12.90;;
10088;SDS011;51898;49.864;8.550;2023-07-02T15:29:43;18.73;;;13.47;;
10088;SDS011;51898;49.864;8.550;2023-07-02T15:32:45;20.20;;;14.27;;
10088;SDS011;51898;49.864;8.550;2023-07-02T15:35:47;22.00;;;13.97;;
10088;SDS011;51898;49.864;8.550;2023-07-02T15:38:50;21.20;;;13.67;;
10088;SDS011;51898;49.864;8.550;2023-07-02T15:41:51;18.90;;;12.77;;
10088;SDS011;51898;49.864;8.550;2023-07-02T15:44:53;17.90;;;12.93;;
10088;SDS011;51898;49.864;8.550;2023-07-02T15:47:55;16.33;;;13.47;;
10088;SDS011;51898;49.864;8.550;2023-07-02T15:50:57;21.87;;;13.70;;
10088;SDS011;51898;49.864;8.550;2023-07-02T15:53:59;19.43;;;13.83;;
10088;SDS011;51898;49.864;8.550;2023-07-02T15:57:01;18.70;;;13.60;;
10088;SDS011;51898;49.864;8.550;2023-07-02T16:00:03;19.37;;;14.63;;
10088;SDS011;51898;49.864;8.550;2023-07-02T16:03:06;21.30;;;13.17;;
10088;SDS011;51898;49.864;8.550;2023-07-02T16:06:08;19.00;;;13.37;;
10088;SDS011;51898;49.864;8.550;2023-07-02T16:09:11;18.43;;;13.57;;
10088;SDS011;51898;49.864;8.550;2023-07-02T16:12:13;20.33;;;13.70;;
10088;SDS011;51898;49.864;8.550;2023-07-02T16:15:14;14.90;;;12.67;;
10088;SDS011;51898;49.864;8.550;2023-07-02T16:18:16;17.83;;;14.13;;
10088;SDS011;51898;49.864;8.550;2023-07-02T16:21:18;22.97;;;14.50;;
10088;SDS011;51898;49.864;8.550;2023-07-02T16:24:24;17.63;;;13.30;;
10088;SDS011;51898;49.864;8.550;2023-07-02T16:27:28;19.13;;;13.80;;
10088;SDS011;51898;49.864;8.550;2023-07-02T16:30:31;23.10;;;14.30;;
10088;SDS011;51898;49.864;8.550;2023-07-02T16:33:34;21.17;;;14.20;;
10088;SDS011;51898;49.864;8.550;2023-07-02T16:36:38;19.60;;;14.53;;
10088;SDS011;51898;49.864;8.550;2023-07-02T16:39:39;19.20;;;13.90;;
10088;SDS011;51898;49.864;8.550;2023-07-02T16:42:41;19.33;;;13.20;;
10088;SDS011;51898;49.864;8.550;2023-07-02T16:45:43;21.63;;;15.07;;
10088;SDS011;51898;49.864;8.550;2023-07-02T16:48:53;18.47;;;13.30;;
10088;SDS011;51898;49.864;8.550;2023-07-02T16:51:55;19.70;;;14.30;;
10088;SDS011;51898;49.864;8.550;2023-07-02T16:54:57;20.73;;;13.83;;
10088;SDS011;51898;49.864;8.550;2023-07-02T16:57:59;22.27;;;14.43;;
10088;SDS011;51898;49.864;8.550;2023-07-02T17:01:05;19.77;;;13.90;;
10088;SDS011;51898;49.864;8.550;2023-07-02T17:04:09;16.13;;;13.17;;
10088;SDS011;51898;49.864;8.550;2023-07-02T17:07:14;16.80;;;12.33;;
10088;SDS011;51898;49.864;8.550;2023-07-02T17:10:16;19.13;;;14.93;;
10088;SDS011;51898;49.864;8.550;2023-07-02T17:13:18;17.27;;;13.93;;
10088;SDS011;51898;49.864;8.550;2023-07-02T17:16:19;23.93;;;14.40;;
10088;SDS011;51898;49.864;8.550;2023-07-02T17:19:26;19.33;;;14.17;;
10088;SDS011;51898;49.864;8.550;2023-07-02T17:22:35;16.77;;;12.90;;
10088;SDS011;51898;49.864;8.550;2023-07-02T17:25:37;16.33;;;13.10;;
10088;SDS011;51898;49.864;8.550;2023-07-02T17:28:38;18.23;;;13.90;;
10088;SDS011;51898;49.864;8.550;2023-07-02T17:31:40;18.53;;;13.70;;
10088;SDS011;51898;49.864;8.550;2023-07-02T17:34:44;22.93;;;14.47;;
10088;SDS011;51898;49.864;8.550;2023-07-02T17:37:45;18.30;;;13.00;;
10088;SDS011;51898;49.864;8.550;2023-07-02T17:40:47;17.93;;;12.50;;
10088;SDS011;51898;49.864;8.550;2023-07-02T17:43:49;18.40;;;13.70;;
10088;SDS011;51898;49.864;8.550;2023-07-02T17:46:58;17.60;;;13.30;;
10088;SDS011;51898;49.864;8.550;2023-07-02T17:50:02;18.70;;;14.10;;
10088;SDS011;51898;49.864;8.550;2023-07-02T17:53:04;18.37;;;12.07;;
10088;SDS011;51898;49.864;8.550;2023-07-02T17:56:06;17.80;;;13.27;;
10088;SDS011;51898;49.864;8.550;2023-07-02T17:59:08;18.03;;;13.77;;
10088;SDS011;51898;49.864;8.550;2023-07-02T18:02:10;22.87;;;13.80;;
10088;SDS011;51898;49.864;8.550;2023-07-02T18:05:13;19.13;;;12.70;;
10088;SDS011;51898;49.864;8.550;2023-07-02T18:08:15;16.10;;;13.10;;
10088;SDS011;51898;49.864;8.550;2023-07-02T18:11:16;17.83;;;12.80;;
10088;SDS011;51898;49.864;8.550;2023-07-02T18:14:21;21.37;;;12.90;;
10088;SDS011;51898;49.864;8.550;2023-07-02T18:17:26;19.63;;;13.90;;
10088;SDS011;51898;49.864;8.550;2023-07-02T18:20:28;20.03;;;13.30;;